Time;durP1;ratioP1;P1;durP2;ratioP2;P2;SDS_P1;SDS_P2;PMS_P1;PMS_P2;Temp;Humidity;BMP_temperature;BMP_pressure;BME280_temperature;BME280_humidity;BME280_pressure;Samples;Min_cycle;Max_cycle;Signal;HPM_P1;HPM_P2
2022/08/28 00:02:17;;;;;;;8.00;3.22;;;16.50;94.50;;;;;;5063416;28;20102;-35
2022/08/28 00:04:43;;;;;;;10.00;3.88;;;16.40;94.60;;;;;;5063883;28;20051;-36
2022/08/28 00:07:10;;;;;;;6.57;3.17;;;16.40;95.00;;;;;;5064264;28;20251;-36
2022/08/28 00:09:35;;;;;;;7.57;3.53;;;16.30;95.10;;;;;;5063275;28;20031;-41
2022/08/28 00:12:01;;;;;;;6.53;3.58;;;16.20;95.30;;;;;;5062587;28;20430;-41
2022/08/28 00:14:27;;;;;;;9.05;3.95;;;16.20;95.40;;;;;;5063714;28;20036;-43
2022/08/28 00:16:53;;;;;;;6.80;3.20;;;16.10;95.50;;;;;;5062752;28;20024;-37
2022/08/28 00:19:21;;;;;;;9.32;3.95;;;16.00;95.70;;;;;;5064384;28;20024;-35
2022/08/28 00:21:47;;;;;;;5.97;3.10;;;16.00;95.90;;;;;;5062920;28;20048;-41
2022/08/28 00:24:13;;;;;;;6.70;3.53;;;15.90;96.00;;;;;;5064235;28;20082;-39
2022/08/28 00:29:23;;;;;;;7.25;3.58;;;15.90;96.20;;;;;;5062243;28;20087;-36
2022/08/28 00:31:49;;;;;;;6.88;3.17;;;15.80;96.20;;;;;;5061089;28;20538;-37
2022/08/28 00:34:15;;;;;;;5.47;3.35;;;15.80;96.30;;;;;;5063494;28;20040;-43
2022/08/28 00:36:40;;;;;;;6.35;3.03;;;15.80;96.30;;;;;;5063054;28;20495;-36
2022/08/28 00:39:07;;;;;;;8.23;3.28;;;15.70;96.40;;;;;;5063899;28;20025;-38
2022/08/28 00:41:34;;;;;;;4.43;2.63;;;15.70;96.40;;;;;;5063997;28;20031;-37
2022/08/28 00:44:13;;;;;;;9.52;3.65;;;15.70;96.50;;;;;;5063366;28;20055;-39
2022/08/28 00:46:41;;;;;;;7.95;3.75;;;15.70;96.60;;;;;;5063340;28;20031;-41
2022/08/28 00:49:08;;;;;;;6.60;2.97;;;15.60;96.60;;;;;;5063894;28;20020;-39
2022/08/28 00:54:22;;;;;;;9.30;3.33;;;15.60;96.90;;;;;;5058938;28;20052;-36
2022/08/28 00:56:48;;;;;;;8.05;3.13;;;15.50;96.90;;;;;;5066346;28;20034;-34
2022/08/28 00:59:19;;;;;;;7.78;3.40;;;15.50;97.00;;;;;;5067565;28;20016;-37
2022/08/28 01:01:46;;;;;;;9.82;3.45;;;15.50;97.20;;;;;;5067010;28;20035;-40
2022/08/28 01:04:15;;;;;;;8.88;3.17;;;15.50;97.30;;;;;;5066468;28;20149;-39
2022/08/28 01:06:43;;;;;;;8.30;3.90;;;15.40;97.30;;;;;;5067285;28;20109;-37
2022/08/28 01:09:11;;;;;;;8.48;3.45;;;15.40;97.40;;;;;;5067480;28;20042;-41
2022/08/28 01:11:40;;;;;;;6.20;3.42;;;15.40;97.40;;;;;;5066870;28;20331;-36
2022/08/28 01:14:07;;;;;;;5.95;2.95;;;15.40;97.50;;;;;;5067819;28;20051;-37
2022/08/28 01:16:33;;;;;;;4.63;2.67;;;15.40;97.60;;;;;;5067110;28;20017;-39
2022/08/28 01:18:59;;;;;;;6.22;2.78;;;15.30;97.60;;;;;;5066442;28;20036;-38
2022/08/28 01:21:38;;;;;;;9.45;3.78;;;15.30;97.70;;;;;;5067068;28;20352;-36
2022/08/28 01:24:08;;;;;;;5.28;2.92;;;15.30;97.70;;;;;;5066461;28;20111;-36
2022/08/28 01:26:33;;;;;;;8.00;3.22;;;15.20;97.80;;;;;;5065992;28;20399;-36
2022/08/28 01:29:00;;;;;;;6.88;3.30;;;15.20;97.90;;;;;;5066548;28;20029;-35
2022/08/28 01:31:29;;;;;;;5.88;3.20;;;15.20;97.90;;;;;;5067042;28;20136;-36
2022/08/28 01:33:58;;;;;;;4.93;3.20;;;15.20;97.90;;;;;;5065944;28;20032;-36
2022/08/28 01:36:24;;;;;;;9.55;3.05;;;15.20;98.00;;;;;;5067146;28;20090;-36
2022/08/28 01:39:14;;;;;;;5.88;2.90;;;15.10;98.00;;;;;;5066220;28;20020;-35
2022/08/28 01:41:42;;;;;;;4.85;2.80;;;15.10;98.10;;;;;;5066249;28;20119;-37
2022/08/28 01:44:08;;;;;;;6.10;3.13;;;15.10;98.10;;;;;;5066453;28;20054;-39
2022/08/28 01:46:33;;;;;;;7.07;3.28;;;15.10;98.20;;;;;;5066139;28;20464;-40
2022/08/28 01:48:59;;;;;;;6.15;2.92;;;15.10;98.30;;;;;;5065966;28;20025;-38
2022/08/28 01:51:25;;;;;;;8.02;3.22;;;15.00;98.30;;;;;;5066856;28;20024;-36
2022/08/28 01:53:51;;;;;;;6.30;3.08;;;15.00;98.40;;;;;;5064951;28;20052;-35
2022/08/28 01:56:17;;;;;;;5.80;2.70;;;14.90;98.40;;;;;;5066439;28;20048;-35
2022/08/28 01:58:43;;;;;;;4.40;2.78;;;14.90;98.50;;;;;;5066312;28;20368;-37
2022/08/28 02:01:14;;;;;;;7.15;2.97;;;14.90;98.50;;;;;;5065778;28;20024;-38
2022/08/28 02:03:46;;;;;;;4.95;2.65;;;14.90;98.60;;;;;;5065497;28;20035;-36
2022/08/28 02:06:13;;;;;;;6.15;2.90;;;14.80;98.60;;;;;;5066110;28;20505;-39
2022/08/28 02:08:39;;;;;;;5.30;2.90;;;14.80;98.70;;;;;;5064942;28;20056;-38
2022/08/28 02:11:06;;;;;;;4.60;2.50;;;14.80;98.70;;;;;;5065720;28;20063;-37
2022/08/28 02:13:32;;;;;;;4.18;2.63;;;14.70;98.70;;;;;;5065964;28;20025;-35
2022/08/28 02:15:58;;;;;;;4.68;2.53;;;14.70;98.80;;;;;;5064590;28;20075;-38
2022/08/28 02:18:26;;;;;;;5.63;2.50;;;14.70;98.80;;;;;;5065823;28;20432;-40
2022/08/28 02:20:51;;;;;;;7.05;2.50;;;14.70;98.90;;;;;;5065499;28;20078;-36
2022/08/28 02:23:17;;;;;;;7.95;3.00;;;14.70;99.00;;;;;;5065292;28;20112;-34
2022/08/28 02:25:43;;;;;;;4.22;2.50;;;14.70;99.00;;;;;;5065768;28;20029;-41
2022/08/28 02:28:08;;;;;;;6.65;2.50;;;14.60;99.10;;;;;;5065974;28;20020;-37
2022/08/28 02:30:35;;;;;;;6.20;2.92;;;14.60;99.10;;;;;;5064415;28;20017;-40
2022/08/28 02:33:03;;;;;;;6.75;2.55;;;14.60;99.20;;;;;;5066365;28;20021;-37
2022/08/28 02:35:30;;;;;;;6.35;2.65;;;14.60;99.20;;;;;;5064827;28;20551;-40
2022/08/28 02:37:56;;;;;;;5.68;2.47;;;14.60;99.30;;;;;;5065874;28;20035;-35
2022/08/28 02:40:23;;;;;;;3.83;2.22;;;14.60;99.40;;;;;;5065850;28;20028;-36
2022/08/28 02:42:49;;;;;;;4.97;3.13;;;14.60;99.40;;;;;;5064398;28;20051;-38
2022/08/28 02:45:15;;;;;;;4.40;2.00;;;14.60;99.50;;;;;;5065540;28;20025;-40
2022/08/28 02:47:43;;;;;;;3.33;2.15;;;14.60;99.50;;;;;;5065502;28;20078;-37
2022/08/28 02:50:11;;;;;;;3.28;2.15;;;14.60;99.50;;;;;;5064604;28;20478;-39
2022/08/28 02:52:37;;;;;;;6.03;2.40;;;14.50;99.50;;;;;;5064845;28;20116;-36
2022/08/28 02:55:05;;;;;;;3.97;2.35;;;14.50;99.50;;;;;;5065461;28;20395;-38
2022/08/28 02:57:31;;;;;;;4.05;2.33;;;14.50;99.60;;;;;;5063896;28;20029;-35
2022/08/28 02:59:58;;;;;;;5.32;2.20;;;14.50;99.60;;;;;;5065798;28;20474;-35
2022/08/28 03:02:24;;;;;;;6.35;2.75;;;14.50;99.60;;;;;;5065510;28;20361;-42
2022/08/28 03:04:50;;;;;;;5.43;2.92;;;14.50;99.70;;;;;;5064752;28;20039;-40
2022/08/28 03:07:15;;;;;;;3.38;2.22;;;14.50;99.80;;;;;;5064992;28;20422;-37
2022/08/28 03:09:43;;;;;;;3.83;2.38;;;14.40;99.80;;;;;;5065319;28;20032;-35
2022/08/28 03:12:09;;;;;;;3.95;2.28;;;14.40;99.80;;;;;;5064299;28;20020;-40
2022/08/28 03:14:35;;;;;;;4.65;2.55;;;14.40;99.80;;;;;;5064603;28;20032;-38
2022/08/28 03:17:02;;;;;;;5.60;2.33;;;14.40;99.90;;;;;;5065365;28;20038;-36
2022/08/28 03:19:27;;;;;;;4.18;2.10;;;14.40;99.90;;;;;;5064221;28;20115;-37
2022/08/28 03:21:53;;;;;;;7.80;2.78;;;14.30;99.90;;;;;;5064640;28;20145;-39
2022/08/28 03:24:19;;;;;;;6.28;2.88;;;14.30;99.90;;;;;;5065362;28;20453;-38
2022/08/28 03:26:45;;;;;;;7.55;2.70;;;14.30;99.90;;;;;;5063717;28;20711;-39
2022/08/28 03:29:15;;;;;;;5.60;2.70;;;14.30;99.90;;;;;;5065331;28;20025;-37
2022/08/28 03:31:40;;;;;;;3.97;2.33;;;14.20;99.90;;;;;;5063775;28;20028;-36
2022/08/28 03:34:06;;;;;;;4.90;2.08;;;14.20;99.90;;;;;;5064533;28;20040;-37
2022/08/28 03:36:32;;;;;;;5.18;2.40;;;14.10;99.90;;;;;;5064650;28;20486;-36
2022/08/28 03:39:00;;;;;;;6.72;2.67;;;14.10;99.90;;;;;;5063518;28;20041;-37
2022/08/28 03:41:28;;;;;;;6.60;2.47;;;14.10;99.90;;;;;;5064409;28;20471;-36
2022/08/28 03:43:56;;;;;;;4.78;2.45;;;14.10;99.90;;;;;;5064531;28;20067;-40
2022/08/28 03:46:22;;;;;;;5.10;2.25;;;14.00;99.90;;;;;;5063915;28;20666;-35
2022/08/28 03:48:49;;;;;;;4.72;2.50;;;14.00;99.90;;;;;;5063716;28;20476;-40
2022/08/28 03:51:18;;;;;;;5.65;2.28;;;14.00;99.90;;;;;;5044968;28;20566;-37
2022/08/28 03:53:44;;;;;;;3.80;2.15;;;14.00;99.90;;;;;;5057238;28;20544;-38
2022/08/28 03:56:12;;;;;;;3.55;2.38;;;14.00;99.90;;;;;;5064122;28;20052;-37
2022/08/28 03:58:39;;;;;;;6.78;2.72;;;14.00;99.90;;;;;;5063792;28;20476;-39
2022/08/28 04:01:05;;;;;;;5.68;2.50;;;13.90;99.90;;;;;;5063951;28;20372;-38
2022/08/28 04:03:31;;;;;;;7.38;2.58;;;14.00;99.90;;;;;;5063947;28;20020;-36
2022/08/28 04:05:56;;;;;;;4.13;2.22;;;13.90;99.90;;;;;;5064326;28;20509;-36
2022/08/28 04:08:22;;;;;;;4.28;2.42;;;13.90;99.90;;;;;;5063913;28;20338;-39
2022/08/28 04:10:49;;;;;;;4.95;2.15;;;13.90;99.90;;;;;;5063203;28;20024;-40
2022/08/28 04:13:17;;;;;;;7.03;2.83;;;13.90;99.90;;;;;;5063909;28;20391;-38
2022/08/28 04:15:43;;;;;;;9.88;2.95;;;13.80;99.90;;;;;;5063269;28;20611;-39
2022/08/28 04:18:10;;;;;;;3.45;2.10;;;13.80;99.90;;;;;;5064162;28;20028;-38
2022/08/28 04:20:37;;;;;;;4.72;2.42;;;13.80;99.90;;;;;;5063320;28;20028;-35
2022/08/28 04:23:03;;;;;;;3.13;2.10;;;13.80;99.90;;;;;;5063296;28;20439;-39
2022/08/28 04:25:33;;;;;;;6.55;2.53;;;13.80;99.90;;;;;;5063544;28;20043;-39
2022/08/28 04:27:59;;;;;;;5.43;2.30;;;13.70;99.90;;;;;;5066750;28;20032;-41
2022/08/28 04:30:25;;;;;;;5.40;2.70;;;13.70;99.90;;;;;;5067722;28;20032;-36
2022/08/28 04:32:50;;;;;;;6.75;3.03;;;13.70;99.90;;;;;;5068288;28;20533;-36
2022/08/28 04:35:17;;;;;;;4.53;2.63;;;13.70;99.90;;;;;;5066869;28;20037;-34
2022/08/28 04:37:42;;;;;;;5.07;2.50;;;13.60;99.90;;;;;;5067391;28;20028;-35
2022/08/28 04:40:10;;;;;;;6.13;2.38;;;13.60;99.90;;;;;;5067067;28;20460;-39
2022/08/28 04:42:37;;;;;;;3.47;2.63;;;13.60;99.90;;;;;;5067205;28;20036;-36
2022/08/28 04:45:03;;;;;;;4.15;2.50;;;13.60;99.90;;;;;;5066954;28;20021;-37
2022/08/28 04:47:29;;;;;;;5.28;2.40;;;13.60;99.90;;;;;;5067391;28;20028;-39
2022/08/28 04:49:55;;;;;;;5.13;2.70;;;13.60;99.90;;;;;;5066860;28;20020;-35
2022/08/28 04:52:21;;;;;;;5.55;2.88;;;13.60;99.90;;;;;;5067323;28;20029;-35
2022/08/28 04:54:47;;;;;;;6.38;2.53;;;13.60;99.90;;;;;;5066618;28;20352;-36
2022/08/28 04:57:12;;;;;;;5.55;2.63;;;13.60;99.90;;;;;;5066819;28;20071;-37
2022/08/28 04:59:40;;;;;;;4.28;2.42;;;13.60;99.90;;;;;;5067259;28;20115;-37
2022/08/28 05:02:06;;;;;;;3.30;2.50;;;13.60;99.90;;;;;;5067545;28;20016;-36
2022/08/28 05:04:31;;;;;;;4.40;3.50;;;13.60;99.90;;;;;;5066849;28;20081;-37
2022/08/28 05:06:57;;;;;;;3.13;2.30;;;13.60;99.90;;;;;;5067116;28;20115;-35
2022/08/28 05:09:22;;;;;;;4.85;2.40;;;13.60;99.90;;;;;;5067486;28;20107;-35
2022/08/28 05:11:48;;;;;;;5.03;2.50;;;13.60;99.90;;;;;;5066049;28;20800;-35
2022/08/28 05:14:14;;;;;;;6.82;2.67;;;13.50;99.90;;;;;;5067425;28;20131;-35
2022/08/28 05:16:47;;;;;;;4.68;2.35;;;13.60;99.90;;;;;;5067023;28;20024;-37
2022/08/28 05:19:13;;;;;;;4.13;2.72;;;13.60;99.90;;;;;;5047075;28;20112;-37
2022/08/28 05:21:39;;;;;;;4.63;2.08;;;13.50;99.90;;;;;;5060608;28;20021;-36
2022/08/28 05:24:06;;;;;;;4.35;2.05;;;13.60;99.90;;;;;;5066442;28;20070;-35
2022/08/28 05:26:32;;;;;;;3.90;2.28;;;13.50;99.90;;;;;;5066849;28;20457;-36
2022/08/28 05:28:59;;;;;;;7.72;2.95;;;13.50;99.90;;;;;;5066957;28;20028;-38
2022/08/28 05:31:27;;;;;;;9.13;3.72;;;13.60;99.90;;;;;;5066012;28;20506;-36
2022/08/28 05:33:54;;;;;;;3.85;2.00;;;13.60;99.90;;;;;;5066531;28;20044;-36
2022/08/28 05:36:22;;;;;;;5.95;2.67;;;13.60;99.90;;;;;;5066760;28;20048;-36
2022/08/28 05:38:48;;;;;;;4.43;2.67;;;13.60;99.90;;;;;;5064436;28;20442;-36
2022/08/28 05:41:22;;;;;;;5.97;2.65;;;13.70;99.90;;;;;;5066705;28;20483;-36
2022/08/28 05:43:48;;;;;;;4.85;2.60;;;13.70;99.90;;;;;;5055926;28;20033;-36
2022/08/28 05:46:15;;;;;;;5.78;2.30;;;13.70;99.90;;;;;;5065369;28;20016;-35
2022/08/28 05:48:41;;;;;;;5.45;2.20;;;13.80;99.90;;;;;;5066110;28;20528;-35
2022/08/28 05:51:15;;;;;;;5.60;2.30;;;13.80;99.90;;;;;;5066905;28;20336;-37
2022/08/28 05:53:44;;;;;;;4.05;2.20;;;13.90;99.90;;;;;;5062614;28;20403;-35
2022/08/28 05:56:12;;;;;;;7.10;2.55;;;13.90;99.90;;;;;;5066834;28;20086;-36
2022/08/28 05:58:39;;;;;;;3.63;2.40;;;14.00;99.90;;;;;;5064632;28;20023;-36
2022/08/28 06:01:11;;;;;;;3.53;1.90;;;14.00;99.90;;;;;;5065427;28;20504;-35
2022/08/28 06:03:38;;;;;;;3.08;2.17;;;14.00;99.90;;;;;;5066118;28;20103;-35
2022/08/28 06:06:05;;;;;;;6.43;2.60;;;14.10;99.90;;;;;;5066605;28;20047;-37
2022/08/28 06:08:30;;;;;;;5.03;2.28;;;14.10;99.90;;;;;;5064968;28;20028;-35
2022/08/28 06:10:56;;;;;;;4.72;2.10;;;14.20;99.90;;;;;;5065620;28;20094;-36
2022/08/28 06:13:22;;;;;;;5.35;2.03;;;14.20;99.90;;;;;;5065550;28;20773;-36
2022/08/28 06:15:48;;;;;;;4.05;2.47;;;14.20;99.90;;;;;;5065360;28;20093;-36
2022/08/28 06:18:14;;;;;;;4.60;1.95;;;14.30;99.90;;;;;;5066677;28;20063;-35
2022/08/28 06:20:42;;;;;;;5.40;2.10;;;14.40;99.90;;;;;;5065294;28;20024;-36
2022/08/28 06:23:09;;;;;;;4.43;2.08;;;14.40;99.90;;;;;;5065244;28;20494;-36
2022/08/28 06:25:39;;;;;;;5.68;2.20;;;14.40;99.90;;;;;;5066227;28;20510;-35
2022/08/28 06:28:06;;;;;;;5.43;2.15;;;14.50;99.90;;;;;;5065415;28;20021;-35
2022/08/28 06:30:36;;;;;;;4.35;1.92;;;14.50;99.90;;;;;;5065876;28;20032;-36
2022/08/28 06:33:02;;;;;;;4.53;1.67;;;14.60;99.90;;;;;;5065829;28;20771;-35
2022/08/28 06:35:30;;;;;;;5.97;2.03;;;14.70;99.90;;;;;;5064977;28;20039;-35
2022/08/28 06:37:55;;;;;;;5.45;2.10;;;14.80;99.90;;;;;;5065600;28;20103;-35
2022/08/28 06:40:21;;;;;;;4.53;1.70;;;14.80;99.90;;;;;;5065562;28;20324;-35
2022/08/28 06:42:47;;;;;;;6.57;2.13;;;14.90;99.90;;;;;;5064574;28;20020;-36
2022/08/28 06:45:15;;;;;;;4.68;1.92;;;15.00;99.90;;;;;;5065687;28;20028;-37
2022/08/28 06:47:40;;;;;;;4.40;2.20;;;15.00;99.90;;;;;;5065417;28;20067;-35
2022/08/28 06:50:06;;;;;;;5.30;2.00;;;15.10;99.90;;;;;;5064727;28;20127;-37
2022/08/28 06:52:32;;;;;;;4.57;1.98;;;15.20;99.90;;;;;;5065581;28;20031;-35
2022/08/28 06:54:58;;;;;;;4.82;2.00;;;15.20;99.90;;;;;;5064877;28;20040;-37
2022/08/28 06:57:24;;;;;;;6.85;2.03;;;15.40;99.90;;;;;;5064547;28;20024;-36
2022/08/28 06:59:54;;;;;;;3.67;1.70;;;15.40;99.90;;;;;;5064999;28;20033;-35
2022/08/28 07:02:20;;;;;;;4.20;2.10;;;15.50;99.90;;;;;;5065198;28;20033;-37
2022/08/28 07:04:52;;;;;;;7.57;2.50;;;15.50;99.90;;;;;;5064260;28;20480;-37
2022/08/28 07:07:18;;;;;;;;;;;15.60;99.90;;;;;;5065449;28;20052;-35
2022/08/28 07:09:44;;;;;;;2.30;1.50;;;15.70;99.90;;;;;;5063518;28;19944;-35
2022/08/28 07:12:13;;;;;;;5.05;2.10;;;15.70;99.90;;;;;;5065467;28;20028;-40
2022/08/28 07:14:39;;;;;;;3.70;1.70;;;15.70;99.90;;;;;;5064364;28;20226;-37
2022/08/28 07:17:06;;;;;;;5.38;1.73;;;15.80;99.90;;;;;;5063915;28;20120;-36
2022/08/28 07:19:32;;;;;;;4.80;1.58;;;15.90;99.90;;;;;;5061895;28;20032;-36
2022/08/28 07:21:58;;;;;;;4.85;2.33;;;15.90;99.90;;;;;;5063610;28;20028;-37
2022/08/28 07:24:24;;;;;;;6.53;1.90;;;16.00;99.90;;;;;;5062625;28;20025;-36
2022/08/28 07:26:51;;;;;;;3.20;1.55;;;16.10;99.90;;;;;;5063921;28;20016;-35
2022/08/28 07:29:17;;;;;;;2.47;1.63;;;16.10;99.90;;;;;;5064160;28;20396;-35
2022/08/28 07:31:54;;;;;;;4.75;2.08;;;16.20;99.90;;;;;;5062245;28;20048;-35
2022/08/28 07:34:21;;;;;;;5.20;1.90;;;16.20;99.90;;;;;;5063232;28;20508;-35
2022/08/28 07:36:50;;;;;;;3.75;1.73;;;16.20;99.90;;;;;;5063095;28;20085;-35
2022/08/28 07:39:16;;;;;;;3.03;1.60;;;16.30;99.90;;;;;;5062917;28;20112;-37
2022/08/28 07:41:45;;;;;;;4.55;1.92;;;16.30;99.90;;;;;;5063630;28;20073;-36
2022/08/28 07:47:01;;;;;;;3.50;1.75;;;16.40;99.90;;;;;;5062715;28;20138;-36
2022/08/28 07:49:26;;;;;;;4.10;1.70;;;16.60;99.90;;;;;;5063164;28;20436;-36
2022/08/28 07:51:52;;;;;;;2.97;1.40;;;16.70;99.90;;;;;;5063364;28;20028;-36
2022/08/28 07:54:19;;;;;;;5.22;1.70;;;16.80;99.90;;;;;;5063909;28;20044;-37
2022/08/28 07:56:45;;;;;;;6.10;1.88;;;16.90;99.90;;;;;;5062938;28;20025;-37
2022/08/28 07:59:11;;;;;;;4.95;1.70;;;17.00;99.90;;;;;;5062541;28;20072;-37
2022/08/28 08:01:40;;;;;;;1.73;1.20;;;17.10;99.90;;;;;;5063088;28;20020;-37
2022/08/28 08:04:08;;;;;;;5.70;1.60;;;17.20;99.90;;;;;;5063467;28;20028;-37
2022/08/28 08:06:36;;;;;;;3.65;1.58;;;17.30;99.90;;;;;;5062495;28;20431;-38
2022/08/28 08:09:04;;;;;;;4.05;1.15;;;17.40;99.60;;;;;;5064105;28;20036;-36
2022/08/28 08:11:30;;;;;;;4.05;1.65;;;17.50;99.50;;;;;;5063962;28;20031;-36
2022/08/28 08:13:56;;;;;;;5.55;1.50;;;17.60;99.10;;;;;;5063323;28;20555;-37
2022/08/28 08:16:24;;;;;;;3.25;1.60;;;17.80;98.40;;;;;;5064664;28;20048;-36
2022/08/28 08:18:50;;;;;;;4.45;1.60;;;17.90;97.80;;;;;;5063853;28;20012;-37
2022/08/28 08:21:18;;;;;;;4.22;1.65;;;18.00;97.50;;;;;;5063314;28;20025;-37
2022/08/28 08:23:44;;;;;;;4.07;1.52;;;18.10;97.10;;;;;;5062970;28;20028;-37
2022/08/28 08:26:15;;;;;;;2.60;1.48;;;18.10;97.10;;;;;;5064511;28;20025;-38
2022/08/28 08:28:41;;;;;;;4.18;1.60;;;18.20;96.90;;;;;;5062628;28;20024;-37
2022/08/28 08:31:13;;;;;;;3.28;1.20;;;18.20;96.70;;;;;;5063829;28;20020;-36
2022/08/28 08:33:42;;;;;;;3.95;1.30;;;18.30;96.90;;;;;;5063696;28;20491;-35
2022/08/28 08:36:10;;;;;;;4.57;1.48;;;18.30;96.40;;;;;;5063272;28;20040;-36
2022/08/28 08:38:36;;;;;;;2.97;1.58;;;18.40;96.40;;;;;;5064024;28;20025;-35
2022/08/28 08:41:26;;;;;;;3.38;1.50;;;18.50;96.10;;;;;;5063434;28;20060;-35
2022/08/28 08:44:01;;;;;;;2.55;1.25;;;18.60;95.50;;;;;;5063548;28;20444;-35
2022/08/28 08:46:34;;;;;;;3.38;1.40;;;18.70;95.50;;;;;;5063381;28;20044;-36
2022/08/28 08:49:03;;;;;;;2.75;1.30;;;18.90;95.10;;;;;;5062587;28;20044;-38
2022/08/28 08:51:43;;;;;;;5.22;1.48;;;19.00;95.10;;;;;;5063858;28;20025;-36
2022/08/28 08:54:16;;;;;;;4.72;1.50;;;19.10;94.60;;;;;;5063588;28;20063;-36
2022/08/28 08:56:43;;;;;;;3.00;1.40;;;19.10;94.00;;;;;;5063417;28;20037;-36
2022/08/28 08:59:24;;;;;;;2.90;1.15;;;19.20;93.90;;;;;;5063779;28;20033;-36
2022/08/28 09:02:05;;;;;;;2.40;1.25;;;19.20;94.00;;;;;;5043886;28;20025;-35
2022/08/28 09:04:42;;;;;;;2.47;1.20;;;19.20;94.00;;;;;;5060299;28;20029;-36
2022/08/28 09:07:26;;;;;;;2.65;1.50;;;19.30;93.40;;;;;;5063623;28;20353;-37
2022/08/28 09:09:53;;;;;;;4.13;1.55;;;19.40;93.60;;;;;;5062604;28;20075;-35
2022/08/28 09:12:21;;;;;;;2.95;1.55;;;19.40;93.50;;;;;;5063625;28;20054;-38
2022/08/28 09:15:04;;;;;;;3.00;1.40;;;19.40;93.20;;;;;;5065307;28;20036;-35
2022/08/28 09:17:41;;;;;;;5.40;1.30;;;19.50;93.10;;;;;;5066459;28;20021;-36
2022/08/28 09:20:11;;;;;;;3.13;1.75;;;19.40;92.50;;;;;;5066726;28;20024;-38
2022/08/28 09:22:40;;;;;;;3.13;1.40;;;19.40;92.70;;;;;;5067314;28;20090;-35
2022/08/28 09:25:09;;;;;;;5.20;1.55;;;19.30;92.70;;;;;;5066285;28;20555;-36
2022/08/28 09:27:46;;;;;;;3.63;1.35;;;19.30;92.90;;;;;;5067021;28;20024;-36
2022/08/28 09:30:12;;;;;;;2.80;1.20;;;19.40;92.70;;;;;;5067298;28;20028;-36
2022/08/28 09:32:43;;;;;;;4.28;1.40;;;19.40;92.70;;;;;;5065742;28;20539;-35
2022/08/28 09:35:26;;;;;;;4.53;1.50;;;19.50;92.20;;;;;;5066832;28;20517;-35
2022/08/28 09:37:52;;;;;;;3.75;1.40;;;19.60;91.60;;;;;;5046232;28;20036;-36
2022/08/28 09:40:24;;;;;;;2.35;1.20;;;19.80;91.60;;;;;;5061557;28;20024;-36
2022/08/28 09:45:53;;;;;;;3.40;1.27;;;20.00;91.40;;;;;;5065719;28;20183;-37
2022/08/28 09:48:29;;;;;;;3.03;1.60;;;20.10;90.90;;;;;;5067032;28;20120;-36
2022/08/28 09:51:04;;;;;;;3.47;1.30;;;20.10;90.30;;;;;;5067094;28;20399;-37
2022/08/28 09:53:40;;;;;;;3.22;1.20;;;20.00;90.40;;;;;;5045794;28;20605;-37
2022/08/28 09:56:24;;;;;;;3.55;1.30;;;19.90;90.40;;;;;;5062977;28;20079;-35
2022/08/28 09:59:00;;;;;;;3.75;1.27;;;19.80;90.40;;;;;;5045851;28;20037;-35
2022/08/28 10:01:44;;;;;;;3.30;1.02;;;19.80;90.50;;;;;;5064336;28;20081;-35
2022/08/28 10:04:16;;;;;;;3.00;1.13;;;19.90;90.40;;;;;;5066686;28;20115;-35
2022/08/28 10:06:47;;;;;;;3.03;1.27;;;20.00;90.00;;;;;;5064003;28;20500;-35
2022/08/28 10:09:40;;;;;;;1.90;1.10;;;20.00;89.10;;;;;;5066698;28;20028;-37
2022/08/28 10:12:29;;;;;;;2.97;1.00;;;20.20;87.90;;;;;;5065199;28;20503;-36
2022/08/28 10:15:00;;;;;;;2.28;1.30;;;20.20;87.60;;;;;;5065753;28;20119;-36
2022/08/28 10:17:38;;;;;;;2.53;1.15;;;20.30;87.90;;;;;;5062366;28;20035;-35
2022/08/28 10:20:12;;;;;;;2.88;1.27;;;20.40;87.00;;;;;;5065782;28;20036;-36
2022/08/28 10:22:53;;;;;;;2.75;1.30;;;20.50;87.00;;;;;;5063063;28;20062;-35
2022/08/28 10:25:41;;;;;;;2.85;1.23;;;20.60;86.40;;;;;;5066249;28;20056;-36
2022/08/28 10:28:32;;;;;;;4.00;1.38;;;20.80;86.00;;;;;;5064305;28;20388;-37
2022/08/28 10:31:08;;;;;;;5.05;1.50;;;20.90;85.70;;;;;;5065810;28;20103;-35
2022/08/28 10:33:57;;;;;;;4.20;1.45;;;21.10;85.60;;;;;;5065656;28;20032;-36
2022/08/28 10:36:30;;;;;;;3.13;1.25;;;21.10;85.90;;;;;;5065756;28;20084;-35
2022/08/28 10:39:19;;;;;;;2.00;1.00;;;21.10;84.20;;;;;;5065677;28;20305;-35
2022/08/28 10:41:53;;;;;;;2.22;1.40;;;21.00;84.40;;;;;;5042779;28;20040;-35
2022/08/28 10:44:28;;;;;;;2.45;1.30;;;20.90;84.20;;;;;;5066500;28;20551;-36
2022/08/28 10:46:57;;;;;;;6.03;1.85;;;21.00;84.90;;;;;;5065366;28;20021;-36
2022/08/28 10:49:32;;;;;;;3.05;1.10;;;21.10;84.70;;;;;;5065010;28;20029;-36
2022/08/28 10:52:05;;;;;;;2.55;1.20;;;21.20;83.80;;;;;;5065306;28;20484;-37
2022/08/28 10:54:51;;;;;;;;;;;21.20;83.50;;;;;;5065034;28;20057;-37
2022/08/28 10:57:40;;;;;;;2.88;1.40;;;21.30;83.60;;;;;;5064912;28;19978;-37
2022/08/28 11:00:26;;;;;;;1.50;1.10;;;21.20;83.70;;;;;;5064753;28;20052;-36
2022/08/28 11:02:57;;;;;;;2.35;1.10;;;21.10;84.10;;;;;;5063698;28;20107;-36
2022/08/28 11:05:27;;;;;;;2.03;1.17;;;21.10;84.20;;;;;;5065969;28;20035;-36
2022/08/28 11:07:57;;;;;;;3.97;1.30;;;21.20;84.00;;;;;;5064678;28;20093;-37
2022/08/28 11:10:44;;;;;;;2.88;1.35;;;21.40;83.70;;;;;;5064713;28;20024;-36
2022/08/28 11:13:10;;;;;;;2.03;1.10;;;21.50;83.50;;;;;;5064081;28;20028;-37
2022/08/28 11:15:40;;;;;;;2.42;1.10;;;21.50;82.90;;;;;;5063183;28;20033;-35
2022/08/28 11:18:14;;;;;;;2.30;1.17;;;21.60;82.80;;;;;;5066283;28;20024;-36
2022/08/28 11:21:11;;;;;;;1.80;1.10;;;21.60;82.00;;;;;;5068282;28;20025;-36
2022/08/28 11:23:50;;;;;;;1.95;1.10;;;21.50;81.50;;;;;;5056272;28;20044;-37
2022/08/28 11:26:32;;;;;;;2.00;1.20;;;21.50;82.10;;;;;;5064378;28;20124;-37
2022/08/28 11:28:58;;;;;;;2.10;1.23;;;21.50;82.20;;;;;;5064008;28;20119;-36
2022/08/28 11:31:25;;;;;;;4.05;1.42;;;21.60;82.30;;;;;;5063478;28;20085;-36
2022/08/28 11:33:52;;;;;;;2.67;1.30;;;21.70;81.60;;;;;;5064266;28;20123;-37
2022/08/28 11:36:21;;;;;;;1.58;1.27;;;21.80;81.00;;;;;;5063724;28;20042;-37
2022/08/28 11:38:52;;;;;;;2.00;1.13;;;21.80;81.00;;;;;;5063457;28;20060;-37
2022/08/28 11:41:21;;;;;;;1.77;1.10;;;21.90;80.30;;;;;;5065105;28;20035;-37
2022/08/28 11:44:11;;;;;;;2.78;1.30;;;21.90;80.40;;;;;;5063646;28;20103;-36
2022/08/28 11:46:44;;;;;;;1.27;1.00;;;22.00;79.20;;;;;;5064269;28;20469;-37
2022/08/28 11:49:28;;;;;;;2.45;1.33;;;22.00;79.10;;;;;;5065015;28;20028;-37
2022/08/28 11:52:24;;;;;;;2.03;1.10;;;21.90;79.00;;;;;;5063717;28;20115;-36
2022/08/28 11:55:04;;;;;;;1.92;1.20;;;21.90;79.10;;;;;;5064668;28;20067;-37
2022/08/28 11:57:56;;;;;;;1.90;1.13;;;21.90;79.40;;;;;;5044299;28;20095;-37
2022/08/28 12:00:46;;;;;;;1.80;1.10;;;22.00;79.40;;;;;;5061415;28;20044;-36
2022/08/28 12:03:30;;;;;;;2.63;1.08;;;22.10;79.50;;;;;;5064186;28;20610;-36
2022/08/28 12:05:57;;;;;;;3.33;1.50;;;22.20;79.90;;;;;;5062917;28;20111;-35
2022/08/28 12:08:55;;;;;;;1.17;0.95;;;22.30;79.20;;;;;;5064350;28;20024;-35
2022/08/28 12:11:39;;;;;;;1.75;1.25;;;22.30;79.20;;;;;;5040835;28;20032;-36
2022/08/28 12:14:10;;;;;;;1.55;0.93;;;22.40;77.20;;;;;;5063462;28;20120;-37
2022/08/28 12:16:57;;;;;;;1.70;0.90;;;22.40;77.20;;;;;;5063623;28;20090;-36
2022/08/28 12:19:32;;;;;;;2.90;1.25;;;22.40;77.20;;;;;;5063297;28;20543;-35
2022/08/28 12:22:11;;;;;;;2.17;1.10;;;22.50;76.40;;;;;;5064092;28;20050;-36
2022/08/28 12:24:49;;;;;;;1.23;1.10;;;22.50;76.30;;;;;;5063785;28;20419;-36
2022/08/28 12:27:15;;;;;;;1.27;1.05;;;22.60;76.80;;;;;;5052652;28;20020;-34
2022/08/28 12:29:57;;;;;;;2.38;1.20;;;22.60;76.40;;;;;;5063888;28;20111;-36
2022/08/28 12:33:06;;;;;;;1.90;1.42;;;22.50;75.60;;;;;;5053850;28;20565;-37
2022/08/28 12:35:31;;;;;;;1.88;1.00;;;22.50;75.90;;;;;;5020828;28;20229;-37
2022/08/28 12:38:03;;;;;;;1.55;1.17;;;22.60;75.20;;;;;;5021701;28;20025;-35
2022/08/28 12:40:49;;;;;;;1.58;0.90;;;22.70;75.00;;;;;;5042533;28;20051;-36
2022/08/28 12:43:26;;;;;;;1.88;1.30;;;22.80;75.10;;;;;;5058436;28;20034;-37
2022/08/28 12:45:56;;;;;;;3.45;1.20;;;22.80;74.50;;;;;;5064433;28;20017;-38
2022/08/28 12:48:26;;;;;;;2.25;1.10;;;22.80;74.70;;;;;;5066634;28;20115;-36
2022/08/28 12:51:12;;;;;;;1.50;1.10;;;22.80;74.90;;;;;;5067628;28;20027;-35
2022/08/28 12:53:44;;;;;;;3.03;1.30;;;22.70;75.20;;;;;;5067078;28;20658;-36
2022/08/28 12:56:16;;;;;;;1.77;0.90;;;22.60;75.00;;;;;;5066661;28;20098;-36
2022/08/28 12:58:43;;;;;;;1.45;1.08;;;22.60;75.00;;;;;;5067434;28;20499;-37
2022/08/28 13:01:32;;;;;;;3.13;1.13;;;22.60;74.60;;;;;;5067051;28;20028;-35
2022/08/28 13:04:01;;;;;;;2.47;1.10;;;22.70;74.20;;;;;;5061412;28;20036;-37
2022/08/28 13:06:29;;;;;;;1.88;1.15;;;22.70;74.10;;;;;;5067162;28;20025;-36
2022/08/28 13:09:15;;;;;;;1.75;1.10;;;22.80;73.30;;;;;;5066450;28;20182;-36
2022/08/28 13:11:46;;;;;;;2.53;1.58;;;22.80;73.60;;;;;;5066152;28;20035;-37
2022/08/28 13:14:12;;;;;;;5.15;1.42;;;22.90;73.80;;;;;;5067297;28;20111;-36
2022/08/28 13:16:46;;;;;;;1.70;1.10;;;23.00;72.80;;;;;;5065382;28;20029;-36